Winterville, MS

7:50 AM CDT on May 27, 2015 (GMT -0500)
Mid Delta Regional | | Change Station
CLOSE
Current Station
Airport
Location: Greenville,
Elevation: 131 ft
Nearby Weather Stations

Elev 131 ft 33.48 °N, 90.99 °W | Updated 8 minutes ago

Thunderstorm
Thunderstorm
69 °F
Feels Like 69 °F
N
6
Wind Variable Wind from NNW

Today
High -- | Low -- °F
--% Chance of Precip.
Yesterday
High -- | Low -- °F
Precip. -- in
5:57 AM 8:05 PM
Waxing Gibbous, 67% visible
Pressure 30.12 in
Visibility 10.0 miles
Clouds Few 3500 ft
Mostly Cloudy 8000 ft
Overcast 10000 ft
Dew Point 65 °F
Humidity 87%
Rainfall 0.10 in
Snow Depth Not available.
UV 0 out of 12
Pollen 4.80 out of 12
Air Quality Not available.
Flu Activity No Activity
SPECI KGLH 271242Z AUTO 33005KT 10SM VCTS -RA FEW035 BKN080 OVC100 21/18 A3012 RMK AO2 LTG DSNT W-N RAB10 P0007 T02060183

More Conditions Fewer Conditions

Pressure 30.12 in
Visibility 10.0 miles
Clouds Few 3500 ft
Mostly Cloudy 8000 ft
Overcast 10000 ft
Dew Point 65 °F
Humidity 87%
Rainfall 0.10 in
Snow Depth Not available.
UV 0 out of 12
Pollen 4.80 out of 12
Air Quality Not available.
Flu Activity No Activity
SPECI KGLH 271242Z AUTO 33005KT 10SM VCTS -RA FEW035 BKN080 OVC100 21/18 A3012 RMK AO2 LTG DSNT W-N RAB10 P0007 T02060183

More Conditions Fewer Conditions

10-Day Weather Forecast

Almanac

Astronomy

May. 27, 2015 Rise Set
Actual Time
Civil Twilight
Nautical Twilight
Astronomical Twilight
Moon
Length of Visible Light
Length of Day
Tomorrow will be .
, % of the Moon is Illuminated

Today's Extremes

State Highs State Lows

Community

WunderPhotos

Upload Photos

1,824,661 photos uploaded!

WunderBlogs® & News

Nearby

Air Quality

  Air Quality AQ Index Pollutant
Not available.

Snow Depth

Station Depth Elevation

Earthquake Activity

City Distance Mag. Time & Date
Minimum magnitude displayed is 2.5.

Coastal Water Temperatures

Place Temperature

Stations

Nearby Weather Stations

Station Location Temp. Windchill Dew Point Humidity Wind Precip. Elev Updated Type